Time;durP1;ratioP1;P1;durP2;ratioP2;P2;SDS_P1;SDS_P2;PMS_P1;PMS_P2;Temp;Humidity;BMP_temperature;BMP_pressure;BME280_temperature;BME280_humidity;BME280_pressure;Samples;Min_cycle;Max_cycle;Signal;HPM_P1;HPM_P2
2023/09/07 00:00:14;;;;;;;5.07;2.00;;;;;;;23.33;39.47;99934.84;5071316;28;20060;-80
2023/09/07 00:02:40;;;;;;;5.50;1.67;;;;;;;23.31;39.78;99939.44;5071164;28;20017;-79
2023/09/07 00:05:07;;;;;;;5.95;1.80;;;;;;;23.28;39.76;99934.28;5071467;28;20031;-80
2023/09/07 00:07:32;;;;;;;5.25;2.00;;;;;;;23.24;40.00;99933.56;5071318;28;20115;-80
2023/09/07 00:09:57;;;;;;;5.00;2.00;;;;;;;23.20;40.07;99929.34;5071104;28;20108;-79
2023/09/07 00:12:23;;;;;;;5.10;2.00;;;;;;;23.17;40.18;99933.06;5071308;28;20060;-80
2023/09/07 00:14:48;;;;;;;7.13;1.90;;;;;;;23.13;40.07;99936.91;5061737;28;20056;-81
2023/09/07 00:17:13;;;;;;;5.07;1.93;;;;;;;23.07;40.65;99926.56;5050840;28;20051;-80
2023/09/07 00:19:39;;;;;;;5.20;2.30;;;;;;;23.02;40.79;99924.16;5051051;28;20286;-80
2023/09/07 00:22:04;;;;;;;8.47;2.10;;;;;;;22.99;41.11;99939.56;5056620;28;20547;-78
2023/09/07 00:24:31;;;;;;;9.30;2.20;;;;;;;22.96;41.19;99940.63;5071010;28;20074;-78
2023/09/07 00:26:57;;;;;;;5.38;2.10;;;;;;;22.91;41.05;99938.22;5056230;28;20021;-79
2023/09/07 00:29:22;;;;;;;5.05;1.98;;;;;;;22.89;41.27;99925.84;5051146;28;20029;-79
2023/09/07 00:31:48;;;;;;;6.00;1.97;;;;;;;22.85;41.41;99929.69;5050478;28;20060;-81
2023/09/07 00:34:13;;;;;;;5.73;1.90;;;;;;;22.82;41.49;99927.19;5050893;28;20033;-78
2023/09/07 00:36:39;;;;;;;6.60;2.10;;;;;;;22.77;41.59;99931.00;5050556;28;20029;-82
2023/09/07 00:39:04;;;;;;;4.90;2.20;;;;;;;22.74;41.89;99922.28;5050588;28;20017;-79
2023/09/07 00:41:30;;;;;;;5.57;2.40;;;;;;;22.71;41.94;99920.66;5050703;28;20036;-80
2023/09/07 00:43:55;;;;;;;5.63;2.30;;;;;;;22.67;42.23;99928.97;5050724;28;20468;-78
2023/09/07 00:46:21;;;;;;;4.93;2.10;;;;;;;22.63;42.25;99918.44;5050493;28;20434;-79
2023/09/07 00:48:48;;;;;;;6.70;2.93;;;;;;;22.58;42.65;99915.16;5050348;28;20025;-78
2023/09/07 00:51:13;;;;;;;7.15;2.63;;;;;;;22.56;42.79;99913.53;5050525;28;20070;-79
2023/09/07 00:53:39;;;;;;;7.03;3.20;;;;;;;22.53;43.25;99911.03;5050307;28;20033;-77
2023/09/07 00:56:06;;;;;;;8.32;2.97;;;;;;;22.51;42.89;99914.66;5057882;28;20508;-81
2023/09/07 00:58:32;;;;;;;5.50;2.20;;;;;;;22.48;43.07;99916.66;5069992;28;20031;-78
2023/09/07 01:00:57;;;;;;;7.33;2.30;;;;;;;22.46;43.03;99915.84;5070452;28;20021;-78
2023/09/07 01:03:22;;;;;;;5.77;2.03;;;;;;;22.43;43.04;99916.03;5070025;28;20065;-78
2023/09/07 01:06:09;;;;;;;6.85;2.00;;;;;;;22.39;43.57;99909.97;5070105;28;20033;-82
2023/09/07 01:08:57;;;;;;;4.97;2.00;;;;;;;22.34;43.87;99906.72;5070191;28;20037;-78
2023/09/07 01:11:22;;;;;;;6.28;2.47;;;;;;;22.30;43.73;99902.50;5051759;28;20025;-80
2023/09/07 01:13:49;;;;;;;7.30;2.47;;;;;;;22.27;43.83;99903.53;5068676;28;20032;-79
2023/09/07 01:16:14;;;;;;;10.70;4.50;;;;;;;22.28;43.70;99907.94;5049922;28;20025;-79
2023/09/07 01:18:41;;;;;;;8.20;3.03;;;;;;;22.27;43.69;99900.84;5049719;28;20043;-79
2023/09/07 01:21:07;;;;;;;7.10;2.37;;;;;;;22.27;43.82;99906.22;5049903;28;20029;-81
2023/09/07 01:23:40;;;;;;;6.07;2.13;;;;;;;22.25;43.69;99913.47;5067262;28;20111;-79
2023/09/07 01:26:08;;;;;;;4.88;1.85;;;;;;;22.20;43.98;99911.09;5062240;28;20090;-80
2023/09/07 01:28:34;;;;;;;6.57;2.55;;;;;;;22.16;44.09;99911.34;5049765;28;20024;-80
2023/09/07 01:30:59;;;;;;;6.53;2.57;;;;;;;22.06;44.61;99911.91;5049860;28;20382;-79
2023/09/07 01:33:24;;;;;;;6.05;2.20;;;;;;;21.98;44.92;99908.78;5049457;28;20037;-78
2023/09/07 01:35:50;;;;;;;5.27;1.87;;;;;;;21.92;45.09;99906.47;5049516;28;20039;-78
2023/09/07 01:38:15;;;;;;;5.43;2.23;;;;;;;21.90;44.88;99909.22;5049359;28;20105;-79
2023/09/07 01:40:40;;;;;;;6.83;2.20;;;;;;;21.88;45.22;99916.47;5049716;28;20455;-79
2023/09/07 01:43:06;;;;;;;6.90;1.90;;;;;;;21.81;45.37;99915.09;5049608;28;20033;-79
2023/09/07 01:45:31;;;;;;;6.57;2.42;;;;;;;21.76;45.52;99912.69;5049587;28;20049;-78
2023/09/07 01:47:58;;;;;;;7.40;2.10;;;;;;;21.76;45.42;99911.81;5049415;28;20040;-78
2023/09/07 01:50:25;;;;;;;6.68;2.35;;;;;;;21.74;45.71;99901.19;5049492;28;20396;-78
2023/09/07 01:52:51;;;;;;;7.90;2.17;;;;;;;21.75;45.82;99899.38;5049474;28;20311;-79
2023/09/07 01:55:16;;;;;;;6.65;2.22;;;;;;;21.70;46.03;99907.66;5049935;28;20258;-78
2023/09/07 01:57:42;;;;;;;6.67;2.30;;;;;;;21.66;45.94;99914.16;5069285;28;20024;-78
2023/09/07 02:00:08;;;;;;;8.53;2.20;;;;;;;21.63;46.09;99911.63;5069244;28;20547;-81
2023/09/07 02:02:33;;;;;;;6.57;2.20;;;;;;;21.61;46.30;99914.38;5069114;28;20263;-80
2023/09/07 02:04:58;;;;;;;6.47;2.33;;;;;;;21.58;46.60;99911.00;5069442;28;20039;-78
2023/09/07 02:07:24;;;;;;;5.93;2.13;;;;;;;21.56;46.32;99910.22;5069315;28;20032;-78
2023/09/07 02:09:49;;;;;;;6.95;2.38;;;;;;;21.53;46.61;99922.00;5069281;28;20033;-78
2023/09/07 02:12:14;;;;;;;10.90;2.70;;;;;;;21.49;47.02;99925.78;5069230;28;20532;-78
2023/09/07 02:14:40;;;;;;;10.60;2.50;;;;;;;21.42;47.14;99919.91;5060848;28;20134;-78
2023/09/07 02:17:06;;;;;;;10.37;2.10;;;;;;;21.41;47.36;99926.22;5048959;28;20025;-78
2023/09/07 02:19:31;;;;;;;10.45;2.08;;;;;;;21.40;47.44;99918.25;5048877;28;20029;-80
2023/09/07 02:21:57;;;;;;;7.50;2.40;;;;;;;21.38;47.04;99921.03;5056453;28;20048;-79
2023/09/07 02:24:22;;;;;;;6.30;2.22;;;;;;;21.35;47.33;99919.38;5073489;28;20094;-78
2023/09/07 02:26:47;;;;;;;5.80;2.13;;;;;;;21.32;47.23;99924.00;5059590;28;20119;-78
2023/09/07 02:29:13;;;;;;;7.97;2.60;;;;;;;21.31;47.25;99924.97;5053053;28;20546;-81
2023/09/07 02:31:39;;;;;;;5.37;2.30;;;;;;;21.32;47.32;99924.00;5052737;28;20122;-78
2023/09/07 02:34:05;;;;;;;7.22;2.15;;;;;;;21.31;47.30;99922.28;5053005;28;20086;-78
2023/09/07 02:36:30;;;;;;;5.97;2.20;;;;;;;21.29;47.81;99924.19;5052927;28;20436;-81
2023/09/07 02:38:55;;;;;;;6.07;2.10;;;;;;;21.28;47.94;99922.47;5052832;28;20036;-79
2023/09/07 02:41:21;;;;;;;7.77;2.50;;;;;;;21.25;47.64;99923.50;5052729;28;20036;-78
2023/09/07 02:43:47;;;;;;;6.57;2.30;;;;;;;21.21;47.80;99928.16;5052836;28;20111;-81
2023/09/07 02:46:13;;;;;;;7.10;2.40;;;;;;;21.18;48.32;99931.00;5052940;28;20373;-78
2023/09/07 02:48:38;;;;;;;5.93;2.35;;;;;;;21.15;48.55;99923.13;5052468;28;20031;-78
2023/09/07 02:51:04;;;;;;;8.73;2.80;;;;;;;21.14;48.25;99926.75;5052392;28;20467;-78
2023/09/07 02:53:29;;;;;;;6.53;2.30;;;;;;;21.12;48.36;99928.66;5052298;28;20032;-78
2023/09/07 02:55:55;;;;;;;7.70;2.20;;;;;;;21.11;48.47;99926.06;5058395;28;20142;-79
2023/09/07 02:58:22;;;;;;;9.10;2.33;;;;;;;21.09;48.71;99928.78;5072343;28;20275;-78
2023/09/07 03:00:48;;;;;;;8.68;2.80;;;;;;;21.07;48.97;99917.31;5072259;28;20025;-79
2023/09/07 03:03:14;;;;;;;5.57;2.30;;;;;;;21.05;49.02;99922.75;5072288;28;20039;-80
2023/09/07 03:05:43;;;;;;;5.70;2.25;;;;;;;21.05;49.50;99927.25;5072524;28;20504;-82
2023/09/07 03:08:09;;;;;;;8.25;2.47;;;;;;;21.04;48.91;99928.19;5072470;28;20028;-82
2023/09/07 03:10:39;;;;;;;6.30;2.30;;;;;;;21.01;49.41;99925.69;5072082;28;20035;-81
2023/09/07 03:13:05;;;;;;;8.35;2.60;;;;;;;21.00;49.02;99923.94;5071789;28;20032;-78
2023/09/07 03:15:31;;;;;;;7.25;2.47;;;;;;;20.98;49.38;99925.84;5057003;28;20079;-77
2023/09/07 03:17:56;;;;;;;5.43;2.20;;;;;;;20.96;49.34;99922.38;5052032;28;20473;-79
2023/09/07 03:20:22;;;;;;;5.90;2.75;;;;;;;20.94;49.58;99927.81;5051884;28;20033;-79
2023/09/07 03:22:48;;;;;;;6.27;2.30;;;;;;;20.93;49.64;99934.09;5051958;28;20583;-79
2023/09/07 03:25:14;;;;;;;5.75;2.40;;;;;;;20.89;49.76;99930.75;5051594;28;20021;-77
2023/09/07 03:27:40;;;;;;;7.90;2.37;;;;;;;20.88;50.08;99925.47;5051776;28;20112;-80
2023/09/07 03:30:07;;;;;;;8.55;2.55;;;;;;;20.86;50.28;99927.34;5051730;28;20124;-77
2023/09/07 03:32:33;;;;;;;9.65;2.83;;;;;;;20.84;49.99;99930.09;5050815;28;20029;-79
2023/09/07 03:35:00;;;;;;;6.78;2.58;;;;;;;20.81;50.19;99932.94;5052601;28;20025;-79
2023/09/07 03:37:29;;;;;;;6.93;2.63;;;;;;;20.78;50.77;99915.22;5033692;28;20483;-78
2023/09/07 03:39:57;;;;;;;8.77;2.33;;;;;;;20.75;50.52;99914.50;5051652;28;20036;-78
2023/09/07 03:42:23;;;;;;;6.47;2.75;;;;;;;20.75;50.75;99917.19;5051814;28;20108;-78
2023/09/07 03:44:48;;;;;;;7.73;3.27;;;;;;;20.75;50.38;99919.84;5051788;28;20116;-78
2023/09/07 03:47:15;;;;;;;7.53;2.30;;;;;;;20.74;50.74;99912.78;5051443;28;20051;-81
2023/09/07 03:49:41;;;;;;;7.37;2.73;;;;;;;20.73;50.81;99916.41;5052165;28;20461;-78
2023/09/07 03:52:07;;;;;;;6.38;2.80;;;;;;;20.73;50.72;99914.56;5051423;28;20108;-78
2023/09/07 03:54:32;;;;;;;6.55;2.60;;;;;;;20.71;51.20;99918.28;5051420;28;20036;-81
2023/09/07 03:56:57;;;;;;;6.70;2.97;;;;;;;20.68;51.32;99915.78;5065987;28;20025;-78
2023/09/07 03:59:23;;;;;;;9.43;3.00;;;;;;;20.64;51.29;99921.28;5071058;28;20020;-79
2023/09/07 04:01:49;;;;;;;7.15;2.72;;;;;;;20.61;51.60;99917.91;5071410;28;20123;-78
2023/09/07 04:04:15;;;;;;;7.17;2.70;;;;;;;20.59;51.61;99915.28;5071800;28;20506;-77
2023/09/07 04:06:41;;;;;;;7.57;2.60;;;;;;;20.58;51.59;99918.06;5071306;28;20024;-80
2023/09/07 04:09:06;;;;;;;8.13;2.50;;;;;;;20.54;51.52;99919.16;5071248;28;20195;-77
2023/09/07 04:11:32;;;;;;;7.33;2.83;;;;;;;20.53;51.71;99914.75;5071049;28;20036;-77
2023/09/07 04:13:57;;;;;;;8.57;2.60;;;;;;;20.49;51.89;99909.53;5068496;28;20068;-77
2023/09/07 04:16:22;;;;;;;6.47;2.80;;;;;;;20.46;51.91;99915.06;5051164;28;20037;-80
2023/09/07 04:18:48;;;;;;;7.57;2.93;;;;;;;20.46;51.99;99911.53;5051170;28;20112;-83
2023/09/07 04:21:13;;;;;;;8.23;2.33;;;;;;;20.46;51.74;99915.06;5051066;28;20055;-80
2023/09/07 04:23:38;;;;;;;7.47;2.90;;;;;;;20.42;52.19;99902.78;5069511;28;20040;-82
2023/09/07 04:26:08;;;;;;;7.35;2.90;;;;;;;20.40;51.85;99898.47;5063988;28;20032;-82
2023/09/07 04:28:33;;;;;;;6.67;2.67;;;;;;;20.36;52.39;99908.47;5051303;28;20086;-81
2023/09/07 04:30:59;;;;;;;7.90;3.20;;;;;;;20.36;51.96;99908.47;5052477;28;20404;-82
2023/09/07 04:33:24;;;;;;;8.57;2.90;;;;;;;20.34;52.38;99905.84;5051405;28;20037;-80
2023/09/07 04:35:50;;;;;;;6.30;2.67;;;;;;;20.32;52.53;99894.38;5050689;28;20479;-80
2023/09/07 04:38:15;;;;;;;7.93;3.20;;;;;;;20.29;52.60;99905.22;5050707;28;20495;-77
2023/09/07 04:40:40;;;;;;;8.20;3.20;;;;;;;20.22;52.99;99911.81;5050688;28;20025;-77
2023/09/07 04:43:06;;;;;;;5.67;2.50;;;;;;;20.13;52.91;99901.56;5050895;28;20025;-78
2023/09/07 04:45:31;;;;;;;6.80;3.03;;;;;;;20.08;53.31;99909.84;5050693;28;20104;-77
2023/09/07 04:47:56;;;;;;;8.07;2.67;;;;;;;20.03;53.30;99906.53;5051175;28;20053;-77
2023/09/07 04:50:22;;;;;;;6.30;2.80;;;;;;;20.02;53.18;99904.81;5050712;28;20029;-78
2023/09/07 04:52:47;;;;;;;6.67;2.93;;;;;;;20.01;53.70;99903.94;5050464;28;20035;-77
2023/09/07 04:55:13;;;;;;;7.53;2.70;;;;;;;20.01;53.24;99909.28;5050464;28;20409;-78
2023/09/07 04:57:38;;;;;;;9.40;2.97;;;;;;;20.01;53.50;99903.94;5071384;28;20099;-81
2023/09/07 05:00:09;;;;;;;7.83;3.10;;;;;;;19.98;53.43;99909.44;5070809;28;20090;-77
2023/09/07 05:02:40;;;;;;;6.20;2.67;;;;;;;19.95;53.52;99914.94;5070053;28;20040;-77
2023/09/07 05:05:06;;;;;;;7.40;2.70;;;;;;;19.94;53.58;99905.19;5052215;28;20530;-77
2023/09/07 05:07:31;;;;;;;8.52;2.90;;;;;;;19.95;53.59;99909.59;5070084;28;20025;-79
2023/09/07 05:09:56;;;;;;;8.17;2.57;;;;;;;19.93;53.30;99912.31;5069914;28;20117;-77
2023/09/07 05:12:22;;;;;;;8.30;3.20;;;;;;;19.93;53.34;99914.16;5070036;28;20282;-77
2023/09/07 05:14:47;;;;;;;6.90;2.90;;;;;;;19.94;53.31;99918.53;5060640;28;20029;-77
2023/09/07 05:17:13;;;;;;;7.70;3.00;;;;;;;19.96;53.29;99919.34;5031711;28;20036;-78
2023/09/07 05:19:38;;;;;;;6.00;2.50;;;;;;;19.98;53.46;99929.94;5031923;28;20025;-78
2023/09/07 05:22:03;;;;;;;7.27;2.70;;;;;;;19.98;53.38;99930.81;5054999;28;20450;-80
2023/09/07 05:24:29;;;;;;;6.45;2.72;;;;;;;19.99;53.19;99926.31;5069679;28;20100;-77
2023/09/07 05:26:54;;;;;;;6.77;2.87;;;;;;;20.00;53.26;99928.03;5060272;28;20036;-79
2023/09/07 05:29:21;;;;;;;8.53;2.90;;;;;;;20.04;53.24;99929.66;5063823;28;20128;-77
2023/09/07 05:31:47;;;;;;;8.88;3.22;;;;;;;20.06;52.96;99936.63;5069332;28;20048;-76
2023/09/07 05:34:12;;;;;;;9.33;2.50;;;;;;;20.07;53.30;99930.34;5066740;28;20040;-83
2023/09/07 05:36:37;;;;;;;6.57;2.63;;;;;;;20.10;53.06;99942.72;5050927;28;20033;-77
2023/09/07 05:39:03;;;;;;;9.53;3.10;;;;;;;20.13;53.10;99939.00;5050314;28;20049;-82
2023/09/07 05:41:29;;;;;;;8.07;2.80;;;;;;;20.13;53.19;99939.88;5053193;28;20263;-78
2023/09/07 05:43:55;;;;;;;6.32;2.63;;;;;;;20.13;53.42;99949.69;5061449;28;20385;-81
2023/09/07 05:46:20;;;;;;;8.30;2.67;;;;;;;20.12;53.32;99950.63;5057243;28;20658;-83
2023/09/07 05:48:46;;;;;;;8.82;2.97;;;;;;;20.08;53.30;99948.13;5035467;28;20029;-78
2023/09/07 05:51:11;;;;;;;6.27;2.60;;;;;;;20.10;53.43;99942.72;5058966;28;20028;-79
2023/09/07 05:53:40;;;;;;;7.60;2.43;;;;;;;20.15;52.89;99943.34;5061049;28;20119;-82
2023/09/07 05:56:05;;;;;;;8.23;2.67;;;;;;;20.21;53.17;99942.19;5066728;28;20017;-82
2023/09/07 05:58:31;;;;;;;7.60;2.60;;;;;;;20.24;53.17;99936.69;5052588;28;20032;-80
2023/09/07 06:00:56;;;;;;;8.13;2.57;;;;;;;20.31;52.82;99938.09;5054811;28;20063;-82
2023/09/07 06:03:22;;;;;;;6.40;2.70;;;;;;;20.37;53.03;99936.94;5057677;28;20025;-81
2023/09/07 06:05:47;;;;;;;7.60;2.70;;;;;;;20.46;53.12;99939.13;5064030;28;20044;-78
2023/09/07 06:08:12;;;;;;;6.73;2.83;;;;;;;20.53;52.69;99941.50;5049322;28;20116;-80
2023/09/07 06:10:38;;;;;;;6.70;2.93;;;;;;;20.68;52.70;99935.34;5052964;28;20032;-80
2023/09/07 06:13:03;;;;;;;6.80;2.50;;;;;;;20.87;52.08;99929.97;5048358;28;20037;-78
2023/09/07 06:15:29;;;;;;;7.95;2.65;;;;;;;21.03;51.60;99939.84;5052844;28;20025;-78
2023/09/07 06:17:55;;;;;;;8.90;2.53;;;;;;;21.20;51.30;99944.28;5056236;28;20412;-78
2023/09/07 06:20:20;;;;;;;15.95;2.90;;;;;;;21.36;50.93;99942.53;5052163;28;20044;-80
2023/09/07 06:22:46;;;;;;;7.17;2.73;;;;;;;21.51;50.78;99935.44;5050669;28;20147;-79
2023/09/07 06:25:11;;;;;;;8.30;3.20;;;;;;;21.65;50.51;99945.44;5068346;28;20604;-82
2023/09/07 06:27:37;;;;;;;7.20;2.72;;;;;;;21.71;50.48;99940.72;5053198;28;20032;-83
2023/09/07 06:30:05;;;;;;;9.67;2.77;;;;;;;21.83;50.00;99944.50;5069195;28;20040;-81
2023/09/07 06:32:30;;;;;;;7.20;2.47;;;;;;;21.99;49.38;99936.47;5061594;28;20127;-78
2023/09/07 06:34:56;;;;;;;7.10;2.87;;;;;;;21.96;48.54;99937.50;5047439;28;20486;-79
2023/09/07 06:37:21;;;;;;;6.30;2.25;;;;;;;22.06;48.57;99936.03;5047832;28;20476;-79
2023/09/07 06:39:46;;;;;;;6.37;2.20;;;;;;;22.26;48.23;99951.91;5047770;28;20037;-79
2023/09/07 06:42:12;;;;;;;6.50;2.10;;;;;;;22.36;47.41;99947.72;5047680;28;20029;-78
2023/09/07 06:44:37;;;;;;;6.43;2.23;;;;;;;22.42;47.16;99943.81;5047588;28;20115;-82
2023/09/07 06:47:03;;;;;;;6.67;2.00;;;;;;;22.50;46.73;99945.13;5047456;28;20079;-78
2023/09/07 06:49:29;;;;;;;6.82;2.28;;;;;;;22.62;46.72;99948.91;5048207;28;20035;-82
2023/09/07 06:51:56;;;;;;;8.20;2.20;;;;;;;22.71;46.30;99947.50;5049038;28;20049;-77
2023/09/07 06:54:21;;;;;;;6.57;1.92;;;;;;;22.82;46.21;99949.53;5049154;28;20465;-79
2023/09/07 06:56:47;;;;;;;6.37;2.43;;;;;;;22.90;46.25;99960.66;5062316;28;20113;-79
2023/09/07 06:59:13;;;;;;;7.57;2.40;;;;;;;23.02;46.30;99958.19;5068809;28;20063;-78
2023/09/07 07:01:38;;;;;;;6.53;2.20;;;;;;;23.10;45.73;99958.59;5068776;28;20021;-78
2023/09/07 07:04:04;;;;;;;6.10;2.10;;;;;;;23.19;45.41;99960.69;5068313;28;20033;-79
2023/09/07 07:06:29;;;;;;;6.33;2.40;;;;;;;23.29;45.42;99960.19;5060761;28;20029;-78
2023/09/07 07:08:54;;;;;;;8.20;2.30;;;;;;;23.38;44.90;99962.28;5033234;28;20036;-81
2023/09/07 07:11:20;;;;;;;5.90;2.50;;;;;;;23.48;44.73;99963.41;5052508;28;20635;-79
2023/09/07 07:13:45;;;;;;;7.85;2.20;;;;;;;23.57;44.76;99956.59;5053153;28;20476;-83
2023/09/07 07:16:10;;;;;;;7.03;2.30;;;;;;;23.69;44.67;99963.00;5053885;28;20124;-81
2023/09/07 07:18:36;;;;;;;6.93;2.30;;;;;;;23.76;44.29;99963.47;5051543;28;20044;-83
2023/09/07 07:21:01;;;;;;;6.20;2.20;;;;;;;23.93;44.42;99965.06;5068469;28;20016;-81
2023/09/07 07:23:27;;;;;;;8.57;2.30;;;;;;;24.06;44.27;99965.16;5065547;28;20032;-82
2023/09/07 07:25:52;;;;;;;6.20;2.40;;;;;;;24.17;43.87;99956.38;5056987;28;20619;-79
2023/09/07 07:28:18;;;;;;;9.00;2.63;;;;;;;24.23;44.02;99958.66;5051693;28;20051;-81
2023/09/07 07:30:43;;;;;;;8.90;2.50;;;;;;;24.31;43.99;99959.03;5051489;28;20396;-82
2023/09/07 07:33:11;;;;;;;8.60;2.90;;;;;;;24.41;43.50;99958.41;5051528;28;20088;-82
2023/09/07 07:35:37;;;;;;;9.03;2.90;;;;;;;24.44;43.42;99966.28;5051623;28;20771;-79
2023/09/07 07:38:03;;;;;;;7.07;2.70;;;;;;;24.49;42.96;99959.63;5051963;28;20025;-81
2023/09/07 07:40:32;;;;;;;9.00;2.63;;;;;;;24.61;43.24;99962.47;5051986;28;20037;-84
2023/09/07 07:42:57;;;;;;;7.30;2.40;;;;;;;24.71;43.23;99952.78;5050653;28;20485;-82
2023/09/07 07:45:23;;;;;;;7.28;2.42;;;;;;;24.83;43.41;99959.19;5060135;28;20033;-80
2023/09/07 07:47:49;;;;;;;7.07;2.40;;;;;;;24.99;43.23;99961.66;5067362;28;20115;-79
2023/09/07 07:50:15;;;;;;;6.73;2.43;;;;;;;25.12;42.87;99961.69;5071599;28;20039;-81
2023/09/07 07:52:41;;;;;;;7.68;2.70;;;;;;;25.25;42.76;99955.44;5071585;28;20021;-80
2023/09/07 07:55:07;;;;;;;6.28;2.22;;;;;;;25.26;43.15;99968.78;5070548;28;20059;-82
2023/09/07 07:57:32;;;;;;;5.47;2.30;;;;;;;25.39;43.03;99963.38;5052300;28;20056;-81
2023/09/07 07:59:58;;;;;;;5.53;2.10;;;;;;;25.53;42.98;99970.50;5051535;28;20278;-79
2023/09/07 08:02:23;;;;;;;6.80;2.67;;;;;;;25.67;42.80;99966.81;5051077;28;20033;-84
2023/09/07 08:04:49;;;;;;;6.90;2.85;;;;;;;25.75;42.19;99964.44;5050986;28;20021;-84
2023/09/07 08:07:14;;;;;;;7.73;2.53;;;;;;;25.86;42.27;99970.88;5032646;28;20032;-84
2023/09/07 08:09:40;;;;;;;6.40;2.43;;;;;;;25.97;41.72;99970.09;5050986;28;20025;-82
2023/09/07 08:12:05;;;;;;;9.77;2.77;;;;;;;26.09;41.54;99970.03;5050946;28;20476;-83
2023/09/07 08:14:32;;;;;;;9.45;2.80;;;;;;;26.28;40.87;99963.31;5057020;28;20025;-84
2023/09/07 08:16:58;;;;;;;8.77;2.77;;;;;;;26.46;40.46;99962.91;5071091;28;20575;-81
2023/09/07 08:19:24;;;;;;;8.38;2.53;;;;;;;26.58;39.73;99967.34;5070300;28;20048;-81
2023/09/07 08:21:49;;;;;;;7.75;2.75;;;;;;;26.72;39.89;99962.75;5067300;28;20021;-79
2023/09/07 08:24:15;;;;;;;7.23;2.67;;;;;;;26.82;39.18;99958.34;5050544;28;20028;-83
2023/09/07 08:26:40;;;;;;;9.50;2.43;;;;;;;26.87;39.60;99960.72;5049884;28;20065;-82
2023/09/07 08:29:06;;;;;;;7.57;2.27;;;;;;;26.90;39.56;99955.06;5050785;28;20276;-81
2023/09/07 08:31:33;;;;;;;7.35;2.30;;;;;;;27.00;39.57;99949.81;5050071;28;20187;-80
2023/09/07 08:34:00;;;;;;;7.13;2.90;;;;;;;27.06;39.26;99952.91;5032316;28;20060;-82
2023/09/07 08:36:28;;;;;;;8.32;2.53;;;;;;;27.13;39.15;99968.63;5050260;28;20412;-82
2023/09/07 08:38:53;;;;;;;6.70;2.42;;;;;;;27.14;38.91;99960.41;5050464;28;20036;-82
2023/09/07 08:41:20;;;;;;;8.20;2.80;;;;;;;27.21;39.05;99958.94;5050665;28;20029;-82
2023/09/07 08:43:46;;;;;;;7.03;2.60;;;;;;;27.31;38.79;99963.59;5050026;28;20025;-83
2023/09/07 08:46:18;;;;;;;5.17;2.20;;;;;;;27.30;39.22;99967.28;5032215;28;20535;-79
2023/09/07 08:48:44;;;;;;;8.77;2.30;;;;;;;27.35;38.74;99965.06;5050025;28;20297;-81
2023/09/07 08:51:11;;;;;;;7.53;2.47;;;;;;;27.43;38.43;99957.22;5050347;28;20086;-80
2023/09/07 08:53:38;;;;;;;7.15;2.40;;;;;;;27.54;38.62;99971.75;5049984;28;20041;-80
2023/09/07 08:56:09;;;;;;;5.85;2.05;;;;;;;27.60;38.53;99957.72;5057205;28;20039;-82
2023/09/07 08:58:36;;;;;;;6.63;2.53;;;;;;;27.65;38.37;99963.66;5069946;28;20036;-80
2023/09/07 09:01:01;;;;;;;8.27;2.27;;;;;;;27.75;37.80;99961.91;5052929;28;20025;-79
2023/09/07 09:03:28;;;;;;;6.55;2.28;;;;;;;27.83;37.77;99947.75;5049665;28;20039;-82
2023/09/07 09:05:56;;;;;;;5.80;2.37;;;;;;;27.90;37.60;99953.53;5049567;28;20051;-82
2023/09/07 09:08:24;;;;;;;8.35;2.45;;;;;;;28.02;37.36;99940.81;5049952;28;20036;-80
2023/09/07 09:10:58;;;;;;;9.80;2.60;;;;;;;28.10;37.19;99956.44;5031987;28;20033;-80
2023/09/07 09:13:30;;;;;;;7.47;2.53;;;;;;;28.20;37.04;99952.00;5031875;28;20801;-84
2023/09/07 09:15:56;;;;;;;6.53;2.60;;;;;;;28.25;37.04;99951.63;5068128;28;20048;-80
2023/09/07 09:18:21;;;;;;;7.33;2.60;;;;;;;28.29;36.60;99943.09;5051609;28;20025;-80
2023/09/07 09:20:46;;;;;;;6.63;2.63;;;;;;;28.37;36.87;99961.41;5069182;28;20036;-81
2023/09/07 09:23:13;;;;;;;7.77;2.60;;;;;;;28.53;36.86;99954.69;5054643;28;20017;-81
2023/09/07 09:25:41;;;;;;;8.40;2.70;;;;;;;28.60;35.95;99956.75;5049121;28;20028;-81
2023/09/07 09:28:09;;;;;;;7.18;2.67;;;;;;;28.73;36.15;99948.44;5049584;28;20108;-83
2023/09/07 09:30:35;;;;;;;6.05;2.60;;;;;;;28.75;36.10;99956.41;5048816;28;20049;-81
2023/09/07 09:33:02;;;;;;;9.00;2.27;;;;;;;28.86;36.10;99944.69;5049561;28;20048;-83
2023/09/07 09:35:29;;;;;;;7.53;2.63;;;;;;;29.06;35.62;99940.25;5049344;28;20032;-81
2023/09/07 09:37:55;;;;;;;8.70;2.72;;;;;;;29.25;35.85;99938.59;5049577;28;20038;-80
2023/09/07 09:40:21;;;;;;;10.57;2.60;;;;;;;29.36;35.35;99931.25;5049571;28;20036;-80
2023/09/07 09:42:47;;;;;;;7.50;2.43;;;;;;;29.42;35.61;99932.59;5049362;28;20305;-80
2023/09/07 09:45:13;;;;;;;5.43;2.60;;;;;;;29.49;35.22;99928.31;5048938;28;20033;-83
2023/09/07 09:47:42;;;;;;;7.67;2.17;;;;;;;29.59;35.18;99924.78;5048925;28;20095;-81
2023/09/07 09:50:10;;;;;;;7.05;2.40;;;;;;;29.68;35.00;99920.41;5049209;28;20021;-80
2023/09/07 09:52:36;;;;;;;7.15;2.40;;;;;;;29.76;35.02;99915.97;5049250;28;20128;-81
2023/09/07 09:55:05;;;;;;;8.35;2.45;;;;;;;29.83;34.71;99915.44;5049050;28;20532;-81
2023/09/07 09:57:32;;;;;;;6.80;2.47;;;;;;;29.95;34.52;99919.72;5067283;28;20048;-80
2023/09/07 09:59:59;;;;;;;6.18;2.58;;;;;;;30.07;34.79;99926.78;5069290;28;20030;-81
2023/09/07 10:02:26;;;;;;;7.63;2.78;;;;;;;30.27;34.53;99924.06;5069006;28;20511;-84
2023/09/07 10:04:52;;;;;;;8.57;2.40;;;;;;;30.36;34.38;99923.22;5063986;28;20029;-78
2023/09/07 10:07:19;;;;;;;8.02;2.85;;;;;;;30.44;34.50;99921.63;5048577;28;20041;-79
2023/09/07 10:09:45;;;;;;;12.57;2.90;;;;;;;30.60;34.07;99927.34;5049027;28;20021;-80
2023/09/07 10:12:13;;;;;;;6.65;2.90;;;;;;;30.58;34.04;99913.03;5049092;28;20037;-80
2023/09/07 10:14:42;;;;;;;12.18;3.10;;;;;;;30.64;34.51;99930.66;5049390;28;20035;-80
2023/09/07 10:17:09;;;;;;;7.63;2.93;;;;;;;30.71;34.35;99925.47;5048520;28;20033;-81
2023/09/07 10:19:36;;;;;;;8.68;2.88;;;;;;;30.74;33.77;99922.47;5048953;28;20120;-79
2023/09/07 10:22:03;;;;;;;9.50;2.88;;;;;;;30.79;34.09;99929.19;5053917;28;20030;-79
2023/09/07 10:24:39;;;;;;;8.68;3.10;;;;;;;30.88;33.83;99930.16;5068532;28;20032;-79
2023/09/07 10:27:11;;;;;;;6.60;2.90;;;;;;;30.83;34.17;99932.47;5052573;28;20111;-81
2023/09/07 10:29:43;;;;;;;9.23;2.80;;;;;;;30.93;34.01;99933.31;5048695;28;20025;-79
2023/09/07 10:32:10;;;;;;;8.40;3.08;;;;;;;31.11;34.27;99929.81;5048640;28;20112;-80
2023/09/07 10:34:37;;;;;;;7.35;2.67;;;;;;;31.20;34.24;99928.94;5048604;28;20029;-80
2023/09/07 10:37:03;;;;;;;8.23;3.10;;;;;;;31.28;33.93;99921.94;5048404;28;20033;-79
2023/09/07 10:39:32;;;;;;;8.73;3.10;;;;;;;31.41;33.40;99924.31;5048803;28;20033;-80
2023/09/07 10:41:58;;;;;;;7.27;2.43;;;;;;;31.42;33.06;99924.13;5049872;28;20178;-80
2023/09/07 10:44:29;;;;;;;8.20;2.53;;;;;;;31.44;33.11;99921.28;5052094;28;20104;-79
2023/09/07 10:46:57;;;;;;;8.77;2.92;;;;;;;31.55;32.83;99922.94;5052096;28;20055;-79
2023/09/07 10:49:23;;;;;;;11.17;3.13;;;;;;;31.55;33.31;99925.66;5052175;28;20024;-80
2023/09/07 10:51:48;;;;;;;10.77;3.10;;;;;;;31.63;33.24;99931.19;5052754;28;20464;-81
2023/09/07 10:54:22;;;;;;;9.47;3.00;;;;;;;31.77;33.53;99916.25;5053910;28;20094;-83
2023/09/07 10:56:49;;;;;;;9.40;2.80;;;;;;;31.85;32.92;99923.66;5060900;28;20051;-80
2023/09/07 10:59:16;;;;;;;9.40;3.30;;;;;;;31.93;33.17;99926.44;5061231;28;20024;-80
2023/09/07 11:01:45;;;;;;;9.07;3.00;;;;;;;31.96;32.66;99923.44;5059968;28;20053;-82
2023/09/07 11:04:11;;;;;;;7.97;2.90;;;;;;;32.03;32.57;99923.66;5071494;28;20035;-80
2023/09/07 11:06:38;;;;;;;7.50;3.30;;;;;;;32.15;32.67;99907.94;5071864;28;20021;-82
2023/09/07 11:09:04;;;;;;;10.10;2.85;;;;;;;32.32;32.72;99898.94;5071649;28;20036;-81
2023/09/07 11:11:31;;;;;;;9.07;2.97;;;;;;;32.53;32.43;99900.47;5053697;28;20560;-82
2023/09/07 11:13:58;;;;;;;7.27;2.70;;;;;;;32.62;31.87;99896.78;5054847;28;20115;-81
2023/09/07 11:16:26;;;;;;;8.45;2.83;;;;;;;32.69;31.80;99902.47;5060362;28;20461;-81
2023/09/07 11:18:51;;;;;;;11.17;3.07;;;;;;;32.83;31.59;99895.56;5059167;28;20017;-81
2023/09/07 11:21:19;;;;;;;7.88;2.63;;;;;;;32.95;31.15;99895.34;5051386;28;20139;-81
2023/09/07 11:23:44;;;;;;;7.70;2.60;;;;;;;33.07;31.09;99891.28;5057194;28;20021;-84
2023/09/07 11:26:10;;;;;;;6.80;2.93;;;;;;;33.26;30.53;99884.72;5051003;28;20558;-80
2023/09/07 11:28:37;;;;;;;7.20;2.97;;;;;;;33.24;30.42;99888.66;5051111;28;20033;-81